Time;durP1;ratioP1;P1;durP2;ratioP2;P2;SDS_P1;SDS_P2;PMS_P1;PMS_P2;Temp;Humidity;BMP_temperature;BMP_pressure;BME280_temperature;BME280_humidity;BME280_pressure;Samples;Min_cycle;Max_cycle;Signal;HPM_P1;HPM_P2
2021/04/18 03:32:47;;;;;;;9.53;7.70;;;;;;;9.93;55.66;99094.06;7249953;23;20295;-78
2021/04/18 03:36:09;;;;;;;8.47;7.40;;;;;;;9.82;55.86;99088.41;6903781;28;20213;-77
2021/04/18 03:39:30;;;;;;;8.13;7.33;;;;;;;9.76;56.35;99090.00;6893601;28;20212;-77
2021/04/18 03:42:51;;;;;;;17.10;12.60;;;;;;;9.72;56.14;99088.72;6893857;28;20276;-77
2021/04/18 03:46:12;;;;;;;10.20;7.80;;;;;;;9.69;56.78;99086.41;6891905;28;20257;-77
2021/04/18 03:49:34;;;;;;;7.97;7.27;;;;;;;9.59;56.71;99087.75;6893089;28;20211;-78
2021/04/18 03:52:55;;;;;;;8.47;7.67;;;;;;;9.61;56.73;99093.78;6893222;28;20226;-78
2021/04/18 03:56:16;;;;;;;7.57;6.87;;;;;;;10.01;56.54;99095.81;6892700;28;20297;-77
2021/04/18 03:59:37;;;;;;;7.90;7.10;;;;;;;9.99;56.39;99098.69;6893080;28;20218;-78
2021/04/18 04:02:59;;;;;;;7.80;7.00;;;;;;;9.96;56.38;99093.69;6892444;28;20239;-77
2021/04/18 04:06:21;;;;;;;7.10;6.30;;;;;;;10.00;56.27;99099.53;6891839;28;20204;-78
2021/04/18 04:09:42;;;;;;;7.00;6.40;;;;;;;10.19;55.57;99091.66;6887546;28;20738;-77
2021/04/18 04:13:03;;;;;;;8.73;6.53;;;;;;;10.09;55.07;99087.63;6891761;28;20232;-77
2021/04/18 04:16:24;;;;;;;7.40;6.70;;;;;;;9.73;56.70;99101.16;6891955;28;20225;-78
2021/04/18 04:19:45;;;;;;;7.93;6.80;;;;;;;9.88;56.90;99093.00;6892655;28;20236;-79
2021/04/18 04:23:07;;;;;;;8.13;6.80;;;;;;;10.05;55.99;99091.75;6893003;28;20232;-78
2021/04/18 04:26:28;;;;;;;7.00;6.33;;;;;;;10.02;55.50;99092.94;6892531;28;20208;-77
2021/04/18 04:29:49;;;;;;;7.33;6.53;;;;;;;9.88;56.86;99093.00;6893078;28;20218;-77
2021/04/18 04:33:10;;;;;;;9.37;7.60;;;;;;;9.91;56.33;99103.38;6892609;28;20670;-78
2021/04/18 04:36:32;;;;;;;8.33;7.53;;;;;;;9.29;57.57;99119.31;6892786;28;20235;-77
2021/04/18 04:39:53;;;;;;;8.80;7.80;;;;;;;9.34;58.27;99110.69;6892405;28;20263;-78
2021/04/18 04:43:15;;;;;;;12.50;9.90;;;;;;;9.36;58.02;99122.06;6892491;28;20220;-78
2021/04/18 04:46:36;;;;;;;10.60;9.10;;;;;;;9.86;57.32;99112.03;6891925;28;20652;-77
2021/04/18 04:49:57;;;;;;;10.27;9.10;;;;;;;9.69;57.80;99120.59;6892214;28;20240;-77
2021/04/18 04:53:18;;;;;;;11.50;8.63;;;;;;;9.95;57.11;99120.81;6892067;28;20231;-76
2021/04/18 04:56:40;;;;;;;8.97;8.07;;;;;;;10.04;56.60;99123.22;6891186;28;20255;-77
2021/04/18 05:00:01;;;;;;;8.43;7.63;;;;;;;10.09;56.63;99118.09;6882438;28;20217;-77
2021/04/18 05:03:25;;;;;;;8.53;7.63;;;;;;;10.21;56.08;99111.13;6890245;28;20231;-78
2021/04/18 05:06:46;;;;;;;9.33;7.27;;;;;;;10.20;55.43;99114.03;6889591;28;20192;-77
2021/04/18 05:10:08;;;;;;;8.03;6.70;;;;;;;10.19;55.34;99117.75;6891124;28;20261;-77
2021/04/18 05:13:30;;;;;;;7.30;6.60;;;;;;;10.11;55.80;99121.41;6890542;28;20235;-78
2021/04/18 05:16:51;;;;;;;8.00;6.93;;;;;;;10.03;56.37;99126.09;6890763;28;20252;-78
2021/04/18 05:20:13;;;;;;;8.20;7.30;;;;;;;10.12;55.95;99120.41;6891002;28;20228;-77
2021/04/18 05:23:34;;;;;;;10.13;7.10;;;;;;;9.97;55.39;99099.91;6891867;28;20202;-78
2021/04/18 05:26:55;;;;;;;8.17;7.30;;;;;;;10.01;56.21;99117.34;6890397;28;20203;-77
2021/04/18 05:30:18;;;;;;;9.20;7.10;;;;;;;10.12;55.44;99112.31;6890158;28;20243;-77
2021/04/18 05:33:39;;;;;;;10.33;8.27;;;;;;;9.93;56.51;99090.56;6889216;28;20205;-79
2021/04/18 05:37:00;;;;;;;8.73;7.40;;;;;;;10.24;55.63;99131.47;6889738;28;20291;-77
2021/04/18 05:40:22;;;;;;;9.17;7.60;;;;;;;10.07;55.55;99130.09;6891037;28;20248;-79
2021/04/18 05:43:43;;;;;;;10.37;7.53;;;;;;;9.35;57.46;99131.19;6890464;28;20255;-77
2021/04/18 05:47:05;;;;;;;10.00;8.23;;;;;;;10.07;56.34;99136.31;6889679;28;20623;-77
2021/04/18 05:50:26;;;;;;;9.10;7.70;;;;;;;10.30;55.34;99128.84;6889852;28;20230;-77
2021/04/18 05:53:47;;;;;;;9.87;7.13;;;;;;;10.39;55.00;99143.00;6890138;28;20212;-77
2021/04/18 05:57:08;;;;;;;7.70;6.93;;;;;;;10.40;54.82;99140.09;6889770;28;20268;-77
2021/04/18 06:00:30;;;;;;;9.33;8.43;;;;;;;10.34;55.29;99137.38;6889384;28;20239;-79
2021/04/18 06:03:55;;;;;;;10.00;8.40;;;;;;;10.49;55.37;99138.94;6890121;28;20287;-77
2021/04/18 06:07:16;;;;;;;9.10;7.17;;;;;;;10.69;54.04;99134.50;6889289;28;20204;-77
2021/04/18 06:10:37;;;;;;;8.40;6.93;;;;;;;10.71;54.04;99134.31;6889639;28;20252;-77
2021/04/18 06:13:58;;;;;;;11.87;8.03;;;;;;;10.77;52.88;99122.72;6889183;28;20219;-77
2021/04/18 06:17:19;;;;;;;8.30;7.50;;;;;;;10.59;53.80;99115.16;6889308;28;20223;-77
2021/04/18 06:20:41;;;;;;;8.53;7.10;;;;;;;10.80;52.87;99130.44;6889927;28;20231;-77
2021/04/18 06:24:03;;;;;;;8.13;7.23;;;;;;;10.80;53.74;99131.25;6889575;28;20212;-77
2021/04/18 06:27:24;;;;;;;9.30;7.00;;;;;;;10.84;53.46;99118.19;6889240;28;20213;-77
2021/04/18 06:30:45;;;;;;;7.50;6.70;;;;;;;10.77;53.83;99120.03;6888968;28;20224;-77
2021/04/18 06:34:07;;;;;;;8.37;7.37;;;;;;;10.69;54.56;99129.09;6888917;28;20294;-76
2021/04/18 06:37:29;;;;;;;9.07;8.17;;;;;;;10.74;54.25;99137.44;6889079;28;20231;-77
2021/04/18 06:40:51;;;;;;;11.07;8.47;;;;;;;10.83;54.73;99125.47;6889527;28;20234;-78
2021/04/18 06:44:15;;;;;;;9.70;7.57;;;;;;;11.05;53.55;99139.69;6889720;28;20344;-78
2021/04/18 06:47:37;;;;;;;8.63;7.83;;;;;;;11.04;54.06;99129.94;6889420;28;20200;-78
2021/04/18 06:50:59;;;;;;;9.97;8.90;;;;;;;10.54;53.46;99143.72;6889163;28;20221;-78
2021/04/18 06:54:21;;;;;;;9.17;8.20;;;;;;;10.66;53.50;99142.16;6890197;28;20731;-78
2021/04/18 06:57:42;;;;;;;10.53;7.67;;;;;;;10.97;53.33;99137.16;6889075;28;20299;-78
2021/04/18 07:01:04;;;;;;;9.30;8.33;;;;;;;11.08;52.64;99134.72;6889738;28;20232;-78
2021/04/18 07:04:25;;;;;;;10.00;8.33;;;;;;;11.22;51.47;99138.34;6889420;28;20215;-77
2021/04/18 07:07:48;;;;;;;10.07;8.70;;;;;;;11.27;51.22;99131.28;6887066;28;20228;-76
2021/04/18 07:11:12;;;;;;;12.60;8.90;;;;;;;11.16;52.74;99134.56;6891352;28;20267;-77
2021/04/18 07:14:34;;;;;;;9.80;8.77;;;;;;;10.86;52.71;99130.47;6894806;28;20235;-79
2021/04/18 07:17:55;;;;;;;11.13;9.17;;;;;;;11.52;52.52;99143.19;6893309;28;20224;-77
2021/04/18 07:21:17;;;;;;;10.03;8.80;;;;;;;11.46;51.77;99137.81;6894302;28;20224;-78
2021/04/18 07:24:48;;;;;;;9.33;8.40;;;;;;;11.02;53.29;99130.13;6892552;28;20203;-78
2021/04/18 07:28:21;;;;;;;10.47;9.37;;;;;;;11.55;53.17;99123.91;6887338;28;20204;-78
2021/04/18 07:31:43;;;;;;;11.07;8.30;;;;;;;11.76;52.32;99133.75;6893820;28;20228;-77
2021/04/18 07:35:05;;;;;;;9.13;8.20;;;;;;;12.26;51.73;99130.47;6893478;28;20271;-78
2021/04/18 07:38:28;;;;;;;9.60;8.30;;;;;;;12.38;50.65;99132.34;6892918;28;20563;-78
2021/04/18 07:41:53;;;;;;;9.90;8.90;;;;;;;11.99;51.36;99121.53;6892506;28;20228;-78
2021/04/18 07:45:16;;;;;;;10.10;9.10;;;;;;;11.64;52.79;99125.41;6891310;28;20364;-79
2021/04/18 07:48:38;;;;;;;9.43;8.43;;;;;;;10.93;53.83;99131.31;6893284;28;20197;-78
2021/04/18 07:51:59;;;;;;;10.27;9.27;;;;;;;11.24;55.77;99122.75;6895630;28;20220;-76
2021/04/18 07:55:21;;;;;;;12.17;9.47;;;;;;;11.31;54.67;99102.88;6895233;28;20204;-78
2021/04/18 07:58:43;;;;;;;10.33;9.33;;;;;;;12.17;52.57;99119.03;6894374;28;20224;-78
2021/04/18 08:02:06;;;;;;;9.23;8.33;;;;;;;12.62;49.42;99126.31;6894124;28;20247;-78
2021/04/18 08:05:31;;;;;;;11.50;8.97;;;;;;;12.57;48.74;99099.06;6895428;28;20208;-78
2021/04/18 08:08:54;;;;;;;9.60;8.07;;;;;;;12.72;48.76;99112.34;6894768;28;20196;-78
2021/04/18 08:12:17;;;;;;;10.13;8.20;;;;;;;12.06;48.66;99111.56;6894369;28;20255;-78
2021/04/18 08:15:40;;;;;;;7.77;7.00;;;;;;;11.84;49.42;99123.59;6891687;28;20215;-78
2021/04/18 08:19:07;;;;;;;9.20;7.40;;;;;;;11.89;49.07;99117.56;6892593;28;20231;-78
2021/04/18 08:23:01;;;;;;;8.67;7.77;;;;;;;11.83;49.40;99121.09;6892082;28;20267;-78
2021/04/18 08:26:23;;;;;;;11.77;8.50;;;;;;;12.70;47.63;99115.25;6889412;28;20199;-78
2021/04/18 08:30:02;;;;;;;9.67;8.13;;;;;;;12.99;47.45;99120.22;6891766;28;20568;-78
2021/04/18 08:33:45;;;;;;;9.37;8.33;;;;;;;13.34;46.27;99113.41;6880600;28;20379;-78
2021/04/18 08:37:18;;;;;;;10.43;7.50;;;;;;;13.51;45.66;99113.78;6863459;28;20236;-78
2021/04/18 08:40:40;;;;;;;9.27;8.30;;;;;;;13.04;47.21;99130.44;6876199;28;20282;-79
2021/04/18 08:44:15;;;;;;;9.13;7.47;;;;;;;12.80;47.23;99129.19;6890224;28;20576;-78
2021/04/18 08:47:40;;;;;;;10.03;8.07;;;;;;;12.79;47.63;99122.13;6891581;28;20256;-79
2021/04/18 08:51:03;;;;;;;10.03;8.50;;;;;;;12.41;49.13;99123.00;6893273;28;20704;-77
2021/04/18 08:54:30;;;;;;;10.00;7.93;;;;;;;12.67;47.87;99126.50;6895422;28;20208;-79
2021/04/18 08:57:51;;;;;;;8.17;7.33;;;;;;;13.53;45.71;99125.22;6894731;28;20235;-78
2021/04/18 09:01:14;;;;;;;8.17;7.30;;;;;;;13.29;46.42;99121.34;6895009;28;20712;-78
2021/04/18 09:04:37;;;;;;;11.07;7.80;;;;;;;13.11;46.12;99126.63;6894221;28;20550;-77
2021/04/18 09:08:03;;;;;;;14.30;10.53;;;;;;;13.54;45.74;99121.47;6889492;28;20210;-80
2021/04/18 09:11:26;;;;;;;9.47;6.17;;;;;;;13.21;44.48;99123.50;6894277;28;20220;-78
2021/04/18 09:14:49;;;;;;;14.83;13.23;;;;;;;13.40;45.26;99130.69;6893242;28;20205;-79
2021/04/18 09:18:10;;;;;;;8.70;6.60;;;;;;;11.79;47.52;99128.78;6894043;28;20209;-78
2021/04/18 09:21:31;;;;;;;8.73;7.33;;;;;;;12.20;47.15;99110.53;6894471;28;20232;-76
2021/04/18 09:24:57;;;;;;;14.93;12.67;;;;;;;12.86;46.49;99132.94;6894490;28;20209;-80
2021/04/18 09:28:19;;;;;;;8.93;7.13;;;;;;;13.78;44.63;99126.13;6909922;28;20211;-81
2021/04/18 09:31:57;;;;;;;8.23;6.73;;;;;;;12.54;45.27;99122.97;6939317;23;20237;-70
2021/04/18 09:35:20;;;;;;;8.40;6.57;;;;;;;13.77;44.45;99130.72;6964037;28;20256;-69
2021/04/18 09:38:42;;;;;;;10.90;7.20;;;;;;;13.86;43.87;99123.97;6956636;28;20282;-67
2021/04/18 09:42:04;;;;;;;9.30;7.30;;;;;;;14.20;44.09;99126.28;6937016;28;20216;-70
2021/04/18 09:45:28;;;;;;;7.23;6.43;;;;;;;14.49;43.04;99130.22;6943563;28;20647;-69
2021/04/18 09:49:00;;;;;;;8.47;6.63;;;;;;;14.69;42.47;99133.59;6944254;28;20681;-69
2021/04/18 09:52:39;;;;;;;9.37;6.93;;;;;;;13.46;45.39;99129.84;6943803;28;20219;-69
2021/04/18 09:56:03;;;;;;;7.73;6.93;;;;;;;14.12;43.58;99129.25;6943886;28;20576;-69
2021/04/18 09:59:24;;;;;;;10.90;9.17;;;;;;;13.73;44.04;99126.78;6933605;28;20855;-69
2021/04/18 10:03:04;;;;;;;10.47;8.00;;;;;;;13.97;44.37;99130.56;6959756;28;20285;-69
2021/04/18 10:06:26;;;;;;;12.90;8.43;;;;;;;14.01;43.14;99124.53;6971475;28;20205;-69
2021/04/18 10:09:49;;;;;;;9.20;7.33;;;;;;;13.57;42.92;99085.81;6970849;28;20206;-69
2021/04/18 10:13:10;;;;;;;11.67;9.87;;;;;;;13.54;44.14;99129.59;6971851;28;20206;-69
2021/04/18 10:16:40;;;;;;;10.20;6.70;;;;;;;14.55;41.56;99123.88;6949621;28;20631;-68
2021/04/18 10:20:03;;;;;;;11.53;7.80;;;;;;;14.10;43.21;99125.09;6939140;28;20202;-69
2021/04/18 10:23:33;;;;;;;8.07;7.07;;;;;;;13.27;43.74;99130.75;6941104;28;20286;-70
2021/04/18 10:26:54;;;;;;;11.00;7.30;;;;;;;14.03;42.92;99121.56;6971258;28;20230;-69
2021/04/18 10:30:17;;;;;;;10.83;7.13;;;;;;;14.60;40.84;99124.06;6971657;28;20214;-70
2021/04/18 10:33:38;;;;;;;13.37;9.77;;;;;;;13.84;42.36;99117.13;6938797;28;20283;-74
2021/04/18 10:37:03;;;;;;;10.73;7.67;;;;;;;13.22;43.58;99104.31;6937381;28;20231;-69
2021/04/18 10:40:27;;;;;;;10.63;7.33;;;;;;;14.22;42.51;99104.38;6936949;28;20215;-70
2021/04/18 10:43:49;;;;;;;10.57;7.50;;;;;;;15.02;40.51;99106.91;6929662;28;20555;-71
2021/04/18 10:47:11;;;;;;;7.83;7.03;;;;;;;15.49;38.88;99095.28;6959541;28;20197;-70
2021/04/18 10:50:33;;;;;;;8.33;7.03;;;;;;;14.44;40.94;99070.34;6927636;28;20648;-70
2021/04/18 10:53:55;;;;;;;8.43;6.90;;;;;;;15.39;40.01;99098.56;6938803;28;20221;-70
2021/04/18 10:57:16;;;;;;;11.93;7.13;;;;;;;15.26;40.52;99090.53;6932840;28;20231;-70
2021/04/18 11:00:38;;;;;;;10.33;7.17;;;;;;;13.65;41.73;99045.75;6925089;28;20225;-70
2021/04/18 11:03:59;;;;;;;9.60;7.63;;;;;;;13.82;42.59;99092.97;6944964;28;20247;-70
2021/04/18 11:07:22;;;;;;;9.67;7.77;;;;;;;14.94;40.50;99110.78;6945669;28;20201;-70
2021/04/18 11:10:44;;;;;;;8.47;7.57;;;;;;;15.25;40.25;99104.34;6927637;28;20207;-70
2021/04/18 11:14:06;;;;;;;11.30;7.73;;;;;;;14.56;41.89;99107.41;6927702;28;20233;-70
2021/04/18 11:17:28;;;;;;;10.60;7.37;;;;;;;14.78;41.17;99092.34;6971108;28;20221;-70
2021/04/18 11:20:49;;;;;;;10.53;7.27;;;;;;;15.15;39.55;99085.88;6955836;28;20208;-70
2021/04/18 11:24:11;;;;;;;9.07;7.63;;;;;;;15.05;40.18;99082.03;6947844;28;20201;-70
2021/04/18 11:27:33;;;;;;;11.17;6.77;;;;;;;15.03;40.31;99087.69;6947157;28;20264;-70
2021/04/18 11:30:55;;;;;;;9.20;7.23;;;;;;;14.91;41.48;99096.81;6946472;28;20208;-71
2021/04/18 11:34:20;;;;;;;8.73;7.37;;;;;;;14.69;41.34;99085.56;6953687;28;20214;-69
2021/04/18 11:37:42;;;;;;;7.90;7.10;;;;;;;15.32;39.52;99077.94;6945822;28;20234;-71
2021/04/18 11:41:03;;;;;;;11.43;7.43;;;;;;;15.28;39.74;99091.13;6947924;28;20222;-71
2021/04/18 11:44:28;;;;;;;10.53;7.70;;;;;;;13.89;41.53;99087.47;6945327;28;20207;-71
2021/04/18 11:47:50;;;;;;;8.47;7.33;;;;;;;15.43;39.38;99072.59;6962022;28;20204;-70
2021/04/18 11:51:12;;;;;;;7.70;6.80;;;;;;;16.04;37.66;99069.63;6950006;28;20560;-71
2021/04/18 11:54:33;;;;;;;10.07;7.67;;;;;;;15.93;38.03;99032.34;6961782;28;20675;-73
2021/04/18 11:57:58;;;;;;;7.70;6.90;;;;;;;15.92;38.73;99071.47;6969928;28;20234;-72
2021/04/18 12:01:20;;;;;;;11.23;7.90;;;;;;;15.86;39.10;99073.22;6947225;28;20233;-72
2021/04/18 12:04:42;;;;;;;9.43;6.70;;;;;;;15.87;38.22;99041.44;6970781;28;20242;-72
2021/04/18 12:08:03;;;;;;;8.60;7.03;;;;;;;16.19;38.97;99072.69;6974544;28;20216;-71
2021/04/18 12:11:24;;;;;;;8.87;7.17;;;;;;;16.27;38.05;99072.38;6968638;28;20210;-72
2021/04/18 12:14:46;;;;;;;8.20;7.27;;;;;;;15.83;39.60;99072.84;6945751;28;20668;-71
2021/04/18 12:18:08;;;;;;;7.57;6.80;;;;;;;15.79;39.34;99066.22;6947958;28;20237;-71
2021/04/18 12:21:29;;;;;;;10.57;7.10;;;;;;;14.91;40.53;99062.34;6943854;28;20234;-71
2021/04/18 12:24:52;;;;;;;9.53;7.17;;;;;;;14.29;41.48;99064.47;6945722;28;20229;-71
2021/04/18 12:28:13;;;;;;;9.50;7.53;;;;;;;15.68;39.99;99064.31;6945769;28;20229;-70
2021/04/18 12:31:37;;;;;;;9.10;7.50;;;;;;;14.89;39.90;98984.91;6927974;28;20214;-72
2021/04/18 12:34:59;;;;;;;9.90;7.07;;;;;;;14.57;41.45;99053.97;6945546;28;20216;-72
2021/04/18 12:38:21;;;;;;;8.50;7.27;;;;;;;14.78;41.95;99048.09;6928377;28;20235;-72
2021/04/18 12:41:42;;;;;;;9.00;7.87;;;;;;;14.97;41.37;99076.88;6933243;28;20654;-71
2021/04/18 12:45:06;;;;;;;10.30;7.43;;;;;;;14.45;42.13;99070.13;6945050;28;20210;-72
2021/04/18 12:48:28;;;;;;;9.80;7.20;;;;;;;14.78;40.90;99072.53;6957871;28;20558;-71
2021/04/18 12:51:50;;;;;;;7.53;6.83;;;;;;;15.11;40.93;99046.63;6939151;28;20205;-71
2021/04/18 12:55:12;;;;;;;8.00;7.20;;;;;;;15.00;40.93;99049.31;6945639;28;20206;-71
2021/04/18 12:58:33;;;;;;;8.47;7.53;;;;;;;14.79;41.22;99060.59;6945148;28;20231;-71
2021/04/18 13:01:55;;;;;;;8.57;7.20;;;;;;;15.07;40.96;99066.34;6945793;28;20216;-72
2021/04/18 13:05:17;;;;;;;8.97;8.07;;;;;;;15.28;40.11;99079.47;6944357;28;20216;-71
2021/04/18 13:08:39;;;;;;;9.70;8.00;;;;;;;14.72;40.84;99013.72;6945279;28;20252;-71
2021/04/18 13:12:01;;;;;;;10.30;7.37;;;;;;;14.74;40.63;99065.91;6927608;28;20561;-71
2021/04/18 13:15:23;;;;;;;14.30;7.63;;;;;;;15.16;39.75;99059.56;6944861;28;20216;-71
2021/04/18 13:18:45;;;;;;;7.73;7.03;;;;;;;15.31;39.85;99047.22;6945207;28;20561;-72
2021/04/18 13:22:06;;;;;;;9.37;7.10;;;;;;;15.43;39.45;99063.59;6968663;28;20216;-71
2021/04/18 13:25:31;;;;;;;8.97;7.07;;;;;;;15.81;38.94;99066.84;6953489;28;20205;-71
2021/04/18 13:28:53;;;;;;;7.93;6.83;;;;;;;16.65;37.25;99053.72;6933890;28;20210;-72
2021/04/18 13:32:14;;;;;;;7.60;6.73;;;;;;;16.82;36.95;99057.38;6969858;28;20215;-72
2021/04/18 13:35:36;;;;;;;8.50;7.00;;;;;;;15.90;37.67;99062.69;6970487;28;20208;-72
2021/04/18 13:38:58;;;;;;;10.77;7.37;;;;;;;16.16;37.34;99051.41;6971662;28;20689;-71
2021/04/18 13:42:23;;;;;;;10.53;7.27;;;;;;;15.83;38.73;99051.09;6971995;28;20208;-71
2021/04/18 13:45:45;;;;;;;8.40;6.80;;;;;;;14.46;40.75;99039.22;6970917;28;20682;-72
2021/04/18 13:49:07;;;;;;;11.37;7.80;;;;;;;15.47;39.03;99046.63;6952961;28;20212;-71
2021/04/18 13:52:29;;;;;;;9.40;6.97;;;;;;;14.69;39.04;98939.00;6953399;28;20217;-71
2021/04/18 13:55:51;;;;;;;7.87;6.97;;;;;;;15.32;39.22;99051.63;6970872;28;20260;-72
2021/04/18 13:59:15;;;;;;;9.40;7.87;;;;;;;15.75;39.27;99044.09;6944387;28;20226;-71
2021/04/18 14:02:37;;;;;;;10.37;7.27;;;;;;;15.70;38.25;99045.88;6942738;28;20208;-71
2021/04/18 14:05:58;;;;;;;9.03;6.47;;;;;;;15.73;39.07;99039.97;6942814;28;20656;-71
2021/04/18 14:09:19;;;;;;;8.37;7.50;;;;;;;15.96;38.76;99043.56;6942637;28;20299;-71
2021/04/18 14:12:41;;;;;;;9.03;6.83;;;;;;;15.71;38.73;99045.66;6943673;28;20540;-71
2021/04/18 14:16:04;;;;;;;7.70;6.90;;;;;;;16.06;38.49;99034.84;6943029;28;20266;-69
2021/04/18 14:19:25;;;;;;;9.37;7.30;;;;;;;16.42;37.73;99040.09;6942934;28;20215;-71
2021/04/18 14:22:47;;;;;;;8.30;7.00;;;;;;;16.70;37.30;99043.75;6943884;28;20214;-71
2021/04/18 14:26:08;;;;;;;8.90;7.13;;;;;;;16.13;37.85;99027.38;6962684;28;20262;-71
2021/04/18 14:29:31;;;;;;;9.43;7.30;;;;;;;16.65;36.33;99030.03;6971318;28;20215;-72
2021/04/18 14:32:54;;;;;;;8.30;7.40;;;;;;;16.37;37.31;99018.16;6971325;28;20221;-72
2021/04/18 14:36:16;;;;;;;9.33;7.40;;;;;;;16.79;37.05;99003.38;6925956;28;20601;-71
2021/04/18 14:39:39;;;;;;;10.87;7.77;;;;;;;16.74;36.83;99012.25;6915821;28;20715;-71
2021/04/18 14:43:00;;;;;;;9.20;7.60;;;;;;;16.42;37.75;99026.50;6930109;28;20208;-71
2021/04/18 14:46:21;;;;;;;12.53;8.07;;;;;;;16.59;37.69;99022.84;6942440;28;20526;-71
2021/04/18 14:49:45;;;;;;;9.60;8.07;;;;;;;16.52;37.40;99015.84;6925461;28;20643;-71
2021/04/18 14:53:06;;;;;;;10.13;7.23;;;;;;;17.12;35.70;99006.25;6953213;28;20729;-71
2021/04/18 14:56:28;;;;;;;8.63;7.73;;;;;;;17.12;35.71;99018.00;6968888;28;20209;-71
2021/04/18 14:59:55;;;;;;;8.07;6.70;;;;;;;16.05;37.62;99014.97;6969601;28;20227;-72
2021/04/18 15:03:16;;;;;;;8.67;6.93;;;;;;;14.97;39.88;99025.31;6953410;28;20252;-71
2021/04/18 15:06:39;;;;;;;10.70;8.00;;;;;;;15.61;39.17;99017.34;6970223;28;20210;-71
2021/04/18 15:10:01;;;;;;;10.90;8.03;;;;;;;15.93;39.27;99016.84;6969316;28;20204;-69
2021/04/18 15:13:22;;;;;;;11.23;7.93;;;;;;;16.03;38.13;99014.38;6952621;28;20209;-71
2021/04/18 15:16:46;;;;;;;9.93;8.90;;;;;;;16.03;38.47;99008.09;6969800;28;20232;-71
2021/04/18 15:20:08;;;;;;;9.67;7.63;;;;;;;15.69;38.64;99025.19;6952784;28;20265;-71
2021/04/18 15:23:39;;;;;;;11.03;8.33;;;;;;;15.92;39.34;99019.81;6970597;28;20213;-72
2021/04/18 15:27:00;;;;;;;9.27;8.00;;;;;;;16.31;38.29;99011.81;6952736;28;20306;-71
2021/04/18 15:30:22;;;;;;;10.93;7.87;;;;;;;15.88;38.76;99019.44;6941749;28;20647;-71
2021/04/18 15:33:44;;;;;;;10.17;7.63;;;;;;;15.92;38.88;99017.91;6941960;28;20225;-71
2021/04/18 15:37:06;;;;;;;11.33;9.03;;;;;;;16.23;38.88;99012.13;6972130;28;20289;-72
2021/04/18 15:40:34;;;;;;;10.57;8.57;;;;;;;16.02;39.22;99030.91;6952828;28;20224;-71
2021/04/18 15:43:56;;;;;;;9.67;7.97;;;;;;;16.36;38.07;99028.25;6947723;28;20202;-71
2021/04/18 15:47:17;;;;;;;8.90;7.83;;;;;;;15.77;39.01;99024.84;6948867;28;20540;-71
2021/04/18 15:50:38;;;;;;;9.63;8.63;;;;;;;15.82;38.89;99019.53;6947633;28;20199;-72
2021/04/18 15:54:00;;;;;;;12.40;8.30;;;;;;;15.36;39.68;99031.09;6934229;28;20214;-71
2021/04/18 15:57:25;;;;;;;10.53;7.80;;;;;;;15.50;39.34;99013.53;6945836;28;20213;-71
2021/04/18 16:00:48;;;;;;;9.43;7.63;;;;;;;16.02;38.97;99026.31;6955886;28;20216;-71
2021/04/18 16:04:13;;;;;;;9.73;7.97;;;;;;;15.82;39.07;99028.50;6974629;28;20233;-71
2021/04/18 16:07:36;;;;;;;10.63;7.80;;;;;;;15.89;39.13;99028.41;6950792;28;20207;-71
2021/04/18 16:10:57;;;;;;;9.60;8.20;;;;;;;15.53;39.83;99026.69;6929568;28;20513;-72
2021/04/18 16:14:21;;;;;;;12.03;8.23;;;;;;;15.58;39.53;99029.50;6954801;28;20548;-71
2021/04/18 16:17:43;;;;;;;9.60;7.33;;;;;;;15.44;40.16;99027.22;6959709;28;20230;-70
2021/04/18 16:21:05;;;;;;;11.30;8.67;;;;;;;15.72;39.56;99022.00;6946128;28;20197;-69
2021/04/18 16:24:31;;;;;;;9.10;7.77;;;;;;;15.77;39.30;99030.28;6969358;28;20215;-69
2021/04/18 16:27:52;;;;;;;10.33;8.10;;;;;;;15.57;39.79;99033.28;6951296;28;20317;-70
2021/04/18 16:31:16;;;;;;;9.37;7.60;;;;;;;15.50;39.46;99037.16;6972642;28;20214;-70
2021/04/18 16:34:37;;;;;;;9.40;8.30;;;;;;;15.56;39.28;99031.63;6960005;28;20226;-71
2021/04/18 16:37:59;;;;;;;11.40;7.87;;;;;;;16.33;38.43;99036.88;6940970;28;20222;-70
2021/04/18 16:41:23;;;;;;;9.53;7.90;;;;;;;16.32;38.41;99037.09;6955459;28;20230;-71
2021/04/18 16:44:44;;;;;;;9.60;8.40;;;;;;;15.70;39.51;99051.31;6941394;28;20197;-69
2021/04/18 16:48:09;;;;;;;9.97;8.83;;;;;;;15.63;38.82;99047.88;6921759;28;20225;-70
2021/04/18 16:51:30;;;;;;;11.20;7.90;;;;;;;15.58;39.58;99034.94;6965865;28;20213;-69
2021/04/18 16:54:55;;;;;;;9.73;8.17;;;;;;;15.98;38.88;99055.03;6948144;28;20242;-70
2021/04/18 16:58:17;;;;;;;8.77;7.60;;;;;;;16.07;38.61;99055.53;6957069;28;20677;-70
2021/04/18 17:01:38;;;;;;;9.93;8.20;;;;;;;16.19;38.79;99045.50;6941168;28;20203;-70
2021/04/18 17:05:00;;;;;;;13.30;9.40;;;;;;;16.32;38.57;99050.69;6947452;28;20205;-71
2021/04/18 17:08:22;;;;;;;9.80;8.33;;;;;;;16.04;38.78;99059.53;6947517;28;20219;-70
2021/04/18 17:11:43;;;;;;;12.87;7.80;;;;;;;16.00;38.96;99055.66;6932356;28;20211;-69
2021/04/18 17:15:08;;;;;;;13.83;8.17;;;;;;;16.18;39.00;99063.72;6954380;28;20230;-71
2021/04/18 17:18:31;;;;;;;9.30;7.87;;;;;;;15.93;39.06;99059.53;6976801;28;20238;-70
2021/04/18 17:21:54;;;;;;;10.87;8.00;;;;;;;15.88;38.99;99056.69;6977323;28;20214;-70
2021/04/18 17:25:17;;;;;;;12.10;8.87;;;;;;;16.04;39.29;99048.66;6977264;28;20215;-70
2021/04/18 17:28:47;;;;;;;12.87;9.17;;;;;;;15.99;39.14;99051.25;6976324;28;20225;-70
2021/04/18 17:32:10;;;;;;;11.83;7.73;;;;;;;15.87;39.38;99061.28;6954369;28;20237;-71
2021/04/18 17:35:31;;;;;;;11.47;8.47;;;;;;;15.65;39.81;99054.72;6947371;28;20213;-70
2021/04/18 17:38:53;;;;;;;11.27;8.97;;;;;;;15.82;39.65;99066.56;6953521;28;20228;-70
2021/04/18 17:42:17;;;;;;;13.70;9.63;;;;;;;15.95;39.12;99069.13;6977339;28;20203;-69
2021/04/18 17:45:38;;;;;;;12.73;10.50;;;;;;;15.80;39.53;99073.34;6950642;28;20221;-71
2021/04/18 17:49:02;;;;;;;14.37;11.70;;;;;;;16.00;39.41;99073.84;6925014;28;20686;-72
2021/04/18 17:52:24;;;;;;;15.07;10.10;;;;;;;15.84;39.52;99071.78;6920890;28;20221;-71
2021/04/18 17:55:46;;;;;;;17.10;13.67;;;;;;;15.74;40.00;99061.47;6920377;28;20626;-71
2021/04/18 17:59:07;;;;;;;11.37;8.90;;;;;;;15.89;40.24;99066.50;6921506;28;20542;-71
2021/04/18 18:02:29;;;;;;;15.10;11.57;;;;;;;15.98;40.17;99076.78;6975497;28;20230;-71
2021/04/18 18:05:52;;;;;;;28.77;18.17;;;;;;;15.98;40.24;99071.34;6958109;28;20213;-71
2021/04/18 18:09:14;;;;;;;28.40;19.37;;;;;;;16.03;40.70;99073.38;6954101;28;20232;-71
2021/04/18 18:12:40;;;;;;;22.90;17.00;;;;;;;16.01;40.24;99081.78;6944633;28;20209;-71
2021/04/18 18:16:05;;;;;;;16.70;10.73;;;;;;;15.81;41.05;99064.13;6948824;28;20198;-70
2021/04/18 18:19:27;;;;;;;13.40;9.07;;;;;;;15.94;40.59;99072.91;6937255;28;20240;-71
2021/04/18 18:22:49;;;;;;;11.20;8.10;;;;;;;15.90;41.12;99077.13;6948701;28;20292;-72
2021/04/18 18:26:10;;;;;;;10.10;8.03;;;;;;;15.63;42.05;99083.19;6931036;28;20728;-70
2021/04/18 18:29:33;;;;;;;10.63;8.07;;;;;;;15.44;42.42;99076.97;6931249;28;20213;-70
2021/04/18 18:32:59;;;;;;;10.53;8.10;;;;;;;14.80;43.96;99092.16;6932678;28;20246;-69
2021/04/18 18:36:21;;;;;;;10.67;7.57;;;;;;;15.11;43.09;99092.00;6949012;28;20291;-70
2021/04/18 18:39:42;;;;;;;10.03;7.53;;;;;;;15.23;42.58;99090.97;6968072;28;20707;-70
2021/04/18 18:43:06;;;;;;;8.63;7.17;;;;;;;15.19;42.25;99097.94;6947905;28;20203;-70
2021/04/18 18:46:30;;;;;;;9.40;7.30;;;;;;;15.28;42.48;99098.47;6946060;28;20217;-69
2021/04/18 18:49:53;;;;;;;11.97;8.07;;;;;;;15.11;43.18;99103.66;6952558;28;20199;-70
2021/04/18 18:53:26;;;;;;;13.27;8.60;;;;;;;14.83;44.01;99092.53;6943333;28;20203;-69
2021/04/18 18:56:52;;;;;;;11.03;8.33;;;;;;;14.53;44.86;99105.16;6944381;28;20250;-68
2021/04/18 19:00:16;;;;;;;10.27;8.27;;;;;;;14.62;44.85;99098.34;6925841;28;20233;-70
2021/04/18 19:03:39;;;;;;;12.03;8.97;;;;;;;14.54;44.75;99098.66;6929077;28;20672;-69
2021/04/18 19:07:01;;;;;;;13.10;9.60;;;;;;;14.65;44.83;99089.78;6956881;28;20548;-70
2021/04/18 19:10:24;;;;;;;14.60;11.00;;;;;;;14.77;44.80;99090.72;6940495;28;20204;-73
2021/04/18 19:13:45;;;;;;;14.97;10.60;;;;;;;14.85;44.26;99087.69;6937232;28;20759;-71
2021/04/18 19:17:08;;;;;;;12.33;9.97;;;;;;;14.87;44.48;99099.13;6929614;28;20215;-71
2021/04/18 19:20:35;;;;;;;11.17;8.27;;;;;;;14.66;44.64;99102.28;6909562;28;20230;-71